createdAt,value
2019-02-07T00:01:50.713Z,3.02
2019-02-07T00:04:20.255Z,2.10
2019-02-07T00:06:49.729Z,4.12
2019-02-07T00:09:19.207Z,4.42
2019-02-07T00:11:49.244Z,4.37
2019-02-07T00:14:18.787Z,3.50
2019-02-07T00:16:48.319Z,2.10
2019-02-07T00:19:17.893Z,1.98
2019-02-07T00:21:47.578Z,2.67
2019-02-07T00:24:17.133Z,2.58
2019-02-07T00:26:46.757Z,2.22
2019-02-07T00:29:16.208Z,1.05
2019-02-07T00:31:45.841Z,2.62
2019-02-07T00:34:15.390Z,2.12
2019-02-07T00:36:44.864Z,1.62
2019-02-07T00:39:15.335Z,6.58
2019-02-07T00:41:44.792Z,2.52
2019-02-07T00:44:14.424Z,3.10
2019-02-07T00:46:43.909Z,1.42
2019-02-07T00:49:13.373Z,2.40
2019-02-07T00:51:42.882Z,3.72
2019-02-07T00:54:12.384Z,5.05
2019-02-07T00:56:41.890Z,2.80
2019-02-07T00:59:11.544Z,1.95
2019-02-07T01:01:41.082Z,2.25
2019-02-07T01:04:10.637Z,2.47
2019-02-07T01:06:40.080Z,2.90
2019-02-07T01:09:11.703Z,6.08
2019-02-07T01:11:41.187Z,3.15
2019-02-07T01:14:10.636Z,7.65
2019-02-07T01:16:40.122Z,6.60
2019-02-07T01:19:09.718Z,2.05
2019-02-07T01:21:39.281Z,1.70
2019-02-07T01:24:09.403Z,3.10
2019-02-07T01:26:38.913Z,4.12
2019-02-07T01:29:08.363Z,2.92
2019-02-07T01:31:37.920Z,3.85
2019-02-07T01:34:07.487Z,3.62
2019-02-07T01:36:36.993Z,3.55
2019-02-07T01:39:09.130Z,3.72
2019-02-07T01:41:38.645Z,1.52
2019-02-07T01:44:08.189Z,0.98
2019-02-07T01:46:37.689Z,2.70
2019-02-07T01:49:07.189Z,2.08
2019-02-07T01:51:36.637Z,1.25
2019-02-07T01:54:06.517Z,4.50
2019-02-07T01:56:35.990Z,2.62
2019-02-07T01:59:05.457Z,3.27
2019-02-07T02:01:34.971Z,3.22
2019-02-07T02:04:04.529Z,1.80
2019-02-07T02:06:34.016Z,4.65
2019-02-07T02:09:04.519Z,1.92
2019-02-07T02:11:33.960Z,2.00
2019-02-07T02:14:03.416Z,2.77
2019-02-07T02:16:32.914Z,1.80
2019-02-07T02:19:02.380Z,2.55
2019-02-07T02:21:32.268Z,1.45
2019-02-07T02:24:01.723Z,3.05
2019-02-07T02:26:31.395Z,4.72
2019-02-07T02:29:00.880Z,1.77
2019-02-07T02:31:30.525Z,2.12
2019-02-07T02:34:00.009Z,1.75
2019-02-07T02:36:29.844Z,2.98
2019-02-07T02:38:59.357Z,1.65
2019-02-07T02:41:28.817Z,1.45
2019-02-07T02:43:58.304Z,2.25
2019-02-07T02:46:27.930Z,2.20
2019-02-07T02:48:57.513Z,2.45
2019-02-07T02:51:27.374Z,2.17
2019-02-07T02:53:59.243Z,2.08
2019-02-07T02:56:29.264Z,2.37
2019-02-07T02:58:58.827Z,1.98
2019-02-07T03:01:45.496Z,2.67
2019-02-07T03:04:43.197Z,1.85
2019-02-07T03:07:34.441Z,1.35
2019-02-07T03:10:29.233Z,2.47
2019-02-07T03:13:26.429Z,2.58
2019-02-07T03:16:04.988Z,1.00
2019-02-07T03:18:52.708Z,1.72
2019-02-07T03:21:41.855Z,1.27
2019-02-07T03:24:37.710Z,1.30
2019-02-07T03:27:44.122Z,1.50
2019-02-07T03:30:48.519Z,2.92
2019-02-07T03:33:35.014Z,3.10
2019-02-07T03:36:26.206Z,1.20
2019-02-07T03:39:18.063Z,2.22
2019-02-07T03:42:02.428Z,1.17
2019-02-07T03:44:53.967Z,1.52
2019-02-07T03:47:51.261Z,1.15
2019-02-07T03:50:42.488Z,2.20
2019-02-07T03:53:33.914Z,3.45
2019-02-07T03:56:24.681Z,1.95
2019-02-07T03:59:03.204Z,2.17
2019-02-07T04:01:50.283Z,1.92
2019-02-07T04:04:36.737Z,2.08
2019-02-07T04:07:36.959Z,2.15
2019-02-07T04:10:23.814Z,2.25
2019-02-07T04:13:18.479Z,1.55
2019-02-07T04:16:15.170Z,1.10
2019-02-07T04:22:18.533Z,0.65
2019-02-07T04:27:27.876Z,1.17
2019-02-07T04:30:19.056Z,1.75
2019-02-07T04:33:06.398Z,1.77
2019-02-07T04:35:54.734Z,4.90
2019-02-07T04:39:01.532Z,1.85
2019-02-07T04:41:48.426Z,1.07
2019-02-07T04:44:52.146Z,1.67
2019-02-07T04:47:56.081Z,1.42
2019-02-07T04:50:47.015Z,2.17
2019-02-07T04:53:24.639Z,1.50
2019-02-07T04:56:13.120Z,3.40
2019-02-07T04:59:00.139Z,2.12
2019-02-07T05:01:47.430Z,2.05
2019-02-07T05:04:35.796Z,2.22
2019-02-07T05:07:36.200Z,1.32
2019-02-07T05:10:32.299Z,4.30
2019-02-07T05:13:25.512Z,2.70
2019-02-07T05:16:12.208Z,0.88
2019-02-07T05:18:57.786Z,1.82
2019-02-07T05:21:55.363Z,5.35
2019-02-07T05:24:49.636Z,1.42
2019-02-07T05:27:36.529Z,2.50
2019-02-07T05:30:45.077Z,1.92
2019-02-07T05:33:33.435Z,2.17
2019-02-07T05:36:16.139Z,3.05
2019-02-07T05:39:03.312Z,1.90
2019-02-07T05:41:57.480Z,1.85
2019-02-07T05:44:43.380Z,1.25
2019-02-07T05:47:34.257Z,5.17
2019-02-07T05:50:25.725Z,1.52
2019-02-07T05:53:12.568Z,3.08
2019-02-07T05:56:03.861Z,2.67
2019-02-07T05:58:59.307Z,1.22
2019-02-07T06:01:59.908Z,1.52
2019-02-07T06:04:47.279Z,2.15
2019-02-07T06:07:41.507Z,2.02
2019-02-07T06:10:29.659Z,2.33
2019-02-07T06:13:30.407Z,2.33
2019-02-07T06:16:28.029Z,2.17
2019-02-07T06:19:15.071Z,2.80
2019-02-07T06:21:58.452Z,4.00
2019-02-07T06:24:56.139Z,2.10
2019-02-07T06:27:50.784Z,1.80
2019-02-07T06:30:38.142Z,2.40
2019-02-07T06:33:32.983Z,2.77
2019-02-07T06:36:10.825Z,2.87
2019-02-07T06:39:05.062Z,2.12
2019-02-07T06:41:51.848Z,2.67
2019-02-07T06:44:38.830Z,1.35
2019-02-07T06:47:26.007Z,1.67
2019-02-07T06:50:01.632Z,1.95
2019-02-07T06:52:48.913Z,1.72
2019-02-07T06:55:49.255Z,1.77
2019-02-07T06:58:43.493Z,1.90
2019-02-07T07:01:43.969Z,2.15
2019-02-07T07:04:32.341Z,2.27
2019-02-07T07:07:30.085Z,2.85
2019-02-07T07:10:27.320Z,2.55
2019-02-07T07:13:24.570Z,5.70
2019-02-07T07:16:11.410Z,6.92
2019-02-07T07:18:59.776Z,10.28
2019-02-07T07:21:46.635Z,10.60
2019-02-07T07:24:33.416Z,19.70
2019-02-07T07:27:30.586Z,13.40
2019-02-07T07:30:34.142Z,12.28
2019-02-07T07:33:31.945Z,7.35
2019-02-07T07:36:18.759Z,6.25
2019-02-07T07:39:15.905Z,6.10
2019-02-07T07:42:22.956Z,11.68
2019-02-07T07:45:23.124Z,10.70
2019-02-07T07:48:20.659Z,5.80
2019-02-07T07:51:23.823Z,10.18
2019-02-07T07:54:11.067Z,6.90
2019-02-07T07:56:57.983Z,5.97
2019-02-07T07:59:46.434Z,6.42
2019-02-07T08:02:26.909Z,4.12
2019-02-07T08:05:12.143Z,2.85
2019-02-07T08:08:15.796Z,5.45
2019-02-07T08:11:06.931Z,9.95
2019-02-07T08:13:54.325Z,7.97
2019-02-07T08:16:42.661Z,12.10
2019-02-07T08:19:22.463Z,22.85
2019-02-07T08:22:13.752Z,5.62
2019-02-07T08:25:12.964Z,10.50
2019-02-07T08:28:03.665Z,9.50
2019-02-07T08:30:54.483Z,18.15
2019-02-07T08:33:36.048Z,9.25
2019-02-07T08:36:23.531Z,10.75
2019-02-07T08:39:27.003Z,8.88
2019-02-07T08:42:13.794Z,8.63
2019-02-07T08:45:02.142Z,6.72
2019-02-07T08:48:00.150Z,4.87
2019-02-07T08:51:06.751Z,7.33
2019-02-07T08:54:03.741Z,4.40
2019-02-07T08:56:50.742Z,5.05
2019-02-07T08:59:40.498Z,7.97
2019-02-07T09:02:31.697Z,4.28
2019-02-07T09:05:38.157Z,3.60
2019-02-07T09:08:34.040Z,7.10
2019-02-07T09:11:24.840Z,4.95
2019-02-07T09:14:16.068Z,3.52
2019-02-07T09:16:53.491Z,3.62
2019-02-07T09:19:39.885Z,2.35
2019-02-07T09:22:25.173Z,2.90
2019-02-07T09:25:16.610Z,2.35
2019-02-07T09:28:03.975Z,2.35
2019-02-07T09:30:51.128Z,4.45
2019-02-07T09:33:48.892Z,5.10
2019-02-07T09:36:36.031Z,2.15
2019-02-07T09:39:20.760Z,1.45
2019-02-07T09:42:08.626Z,2.02
2019-02-07T09:44:55.681Z,2.85
2019-02-07T09:47:47.929Z,1.72
2019-02-07T09:50:39.947Z,2.00
2019-02-07T09:53:27.533Z,1.35
2019-02-07T09:56:14.727Z,1.17
2019-02-07T09:59:03.399Z,2.15
2019-02-07T10:01:49.516Z,1.82
2019-02-07T10:04:31.845Z,2.67
2019-02-07T10:07:29.303Z,0.80
2019-02-07T10:10:25.007Z,1.70
2019-02-07T10:13:19.443Z,2.47
2019-02-07T10:16:14.211Z,2.50
2019-02-07T10:18:55.245Z,1.82
2019-02-07T10:21:55.493Z,1.20
2019-02-07T10:24:42.787Z,1.42
2019-02-07T10:27:40.200Z,1.52
2019-02-07T10:30:32.597Z,2.02
2019-02-07T10:33:29.754Z,1.27
2019-02-07T10:36:33.128Z,1.77
2019-02-07T10:39:22.279Z,1.15
2019-02-07T10:42:19.373Z,1.10
2019-02-07T10:45:07.016Z,1.85
2019-02-07T10:47:54.507Z,1.00
2019-02-07T10:50:41.815Z,0.88
2019-02-07T10:53:22.908Z,1.27
2019-02-07T10:56:10.369Z,1.20
2019-02-07T10:59:11.070Z,1.00
2019-02-07T11:02:00.818Z,1.25
2019-02-07T11:04:51.934Z,1.98
2019-02-07T11:07:58.559Z,1.00
2019-02-07T11:10:58.825Z,1.07
2019-02-07T11:13:45.753Z,1.52
2019-02-07T11:16:25.655Z,2.20
2019-02-07T11:19:21.335Z,0.55
2019-02-07T11:22:05.817Z,0.85
2019-02-07T11:25:09.272Z,0.88
2019-02-07T11:27:57.681Z,0.80
2019-02-07T11:30:44.819Z,1.70
2019-02-07T11:33:31.779Z,1.67
2019-02-07T11:36:22.070Z,1.60
2019-02-07T11:39:10.424Z,1.42
2019-02-07T11:42:17.190Z,1.57
2019-02-07T11:45:01.729Z,1.10
2019-02-07T11:48:00.229Z,1.00
2019-02-07T11:50:51.286Z,1.22
2019-02-07T11:53:35.076Z,2.55
2019-02-07T11:56:22.559Z,1.15
2019-02-07T11:59:26.000Z,0.75
2019-02-07T12:02:12.645Z,0.93
2019-02-07T12:05:01.392Z,0.70
2019-02-07T12:07:51.810Z,0.95
2019-02-07T12:10:41.099Z,1.45
2019-02-07T12:13:29.462Z,0.78
2019-02-07T12:16:15.061Z,0.60
2019-02-07T12:19:03.090Z,1.72
2019-02-07T12:21:50.096Z,0.95
2019-02-07T12:24:36.704Z,2.40
2019-02-07T12:27:28.451Z,0.98
2019-02-07T12:30:16.060Z,1.17
2019-02-07T12:33:13.701Z,0.98
2019-02-07T12:36:02.151Z,1.98
2019-02-07T12:38:53.670Z,1.77
2019-02-07T12:41:41.313Z,1.12
2019-02-07T12:44:36.168Z,0.60
2019-02-07T12:47:24.349Z,0.62
2019-02-07T12:50:18.761Z,1.67
2019-02-07T12:53:06.193Z,1.77
2019-02-07T12:56:03.173Z,1.70
2019-02-07T12:58:54.800Z,1.82
2019-02-07T13:01:48.371Z,1.02
2019-02-07T13:04:35.701Z,1.72
2019-02-07T13:07:28.282Z,0.70
2019-02-07T13:10:31.907Z,1.32
2019-02-07T13:13:22.156Z,1.70
2019-02-07T13:16:10.000Z,1.10
2019-02-07T13:18:56.862Z,1.00
2019-02-07T13:22:00.248Z,2.02
2019-02-07T13:24:54.504Z,1.20
2019-02-07T13:27:41.752Z,1.32
2019-02-07T13:30:46.711Z,1.60
2019-02-07T13:33:34.595Z,1.20
2019-02-07T13:36:20.211Z,1.10
2019-02-07T13:39:07.457Z,1.70
2019-02-07T13:41:55.896Z,2.77
2019-02-07T13:44:44.253Z,1.40
2019-02-07T13:47:42.525Z,1.30
2019-02-07T13:50:33.169Z,1.05
2019-02-07T13:53:30.535Z,1.60
2019-02-07T13:56:18.907Z,2.10
2019-02-07T13:59:25.806Z,2.42
2019-02-07T14:02:14.168Z,0.72
2019-02-07T14:04:55.532Z,1.55
2019-02-07T14:08:02.419Z,1.67
2019-02-07T14:11:00.024Z,2.67
2019-02-07T14:13:48.951Z,0.95
2019-02-07T14:16:32.180Z,1.37
2019-02-07T14:19:29.873Z,1.02
2019-02-07T14:22:24.193Z,1.32
2019-02-07T14:25:08.933Z,1.82
2019-02-07T14:27:52.987Z,5.78
2019-02-07T14:30:40.037Z,2.00
2019-02-07T14:33:37.641Z,1.80
2019-02-07T14:36:31.911Z,4.00
2019-02-07T14:39:20.633Z,7.00
2019-02-07T14:42:09.060Z,5.60
2019-02-07T14:45:05.470Z,5.12
2019-02-07T14:47:34.999Z,7.47
2019-02-07T14:50:14.530Z,6.20
2019-02-07T14:52:36.523Z,6.20
2019-02-07T14:55:06.710Z,7.40
2019-02-07T14:57:36.213Z,10.68
2019-02-07T15:00:09.940Z,7.53
2019-02-07T15:02:39.450Z,8.03
2019-02-07T15:05:10.400Z,9.63
2019-02-07T15:07:39.860Z,7.85
2019-02-07T15:10:12.267Z,11.40
2019-02-07T15:12:42.055Z,6.83
2019-02-07T15:15:13.812Z,11.78
2019-02-07T15:17:43.303Z,6.75
2019-02-07T15:20:13.096Z,7.85
2019-02-07T15:22:42.671Z,4.53
2019-02-07T15:25:12.836Z,4.30
2019-02-07T15:27:42.663Z,7.22
2019-02-07T15:30:15.237Z,7.28
2019-02-07T15:32:44.819Z,7.25
2019-02-07T15:35:18.283Z,8.43
2019-02-07T15:37:47.782Z,11.88
2019-02-07T15:40:22.035Z,4.92
2019-02-07T15:42:52.052Z,6.78
2019-02-07T15:45:21.999Z,10.05
2019-02-07T15:47:51.533Z,5.30
2019-02-07T15:50:22.848Z,6.55
2019-02-07T15:52:55.211Z,6.58
2019-02-07T15:55:24.947Z,6.83
2019-02-07T15:57:54.500Z,15.32
2019-02-07T16:00:42.428Z,15.00
2019-02-07T16:03:16.701Z,6.47
2019-02-07T16:05:46.204Z,6.75
2019-02-07T16:08:15.782Z,7.05
2019-02-07T16:10:45.462Z,8.50
2019-02-07T16:13:14.919Z,12.20
2019-02-07T16:15:44.580Z,17.07
2019-02-07T16:18:14.130Z,5.40
2019-02-07T16:20:48.994Z,9.05
2019-02-07T16:23:14.921Z,5.30
2019-02-07T16:25:44.547Z,7.60
2019-02-07T16:28:14.209Z,4.00
2019-02-07T16:30:44.110Z,2.80
2019-02-07T16:33:13.736Z,5.12
2019-02-07T16:35:43.552Z,4.75
2019-02-07T16:38:13.194Z,2.55
2019-02-07T16:40:42.682Z,3.95
2019-02-07T16:43:12.259Z,5.05
2019-02-07T16:45:42.286Z,4.62
2019-02-07T16:48:11.826Z,4.12
2019-02-07T16:50:41.457Z,10.08
2019-02-07T16:53:11.008Z,7.42
2019-02-07T16:55:40.712Z,9.40
2019-02-07T16:58:10.315Z,10.58
2019-02-07T17:00:41.448Z,6.97
2019-02-07T17:03:11.028Z,11.35
2019-02-07T17:05:40.788Z,11.40
2019-02-07T17:08:10.345Z,8.93
2019-02-07T17:10:40.519Z,6.87
2019-02-07T17:13:11.057Z,6.50
2019-02-07T17:15:41.057Z,7.65
2019-02-07T17:18:11.439Z,4.10
2019-02-07T17:20:41.176Z,3.20
2019-02-07T17:23:10.803Z,4.15
2019-02-07T17:25:40.374Z,5.53
2019-02-07T17:28:10.151Z,6.05
2019-02-07T17:30:39.974Z,2.55
2019-02-07T17:33:09.602Z,7.60
2019-02-07T17:35:39.360Z,4.08
2019-02-07T17:38:08.973Z,2.70
2019-02-07T17:40:38.632Z,3.58
2019-02-07T17:43:08.291Z,9.03
2019-02-07T17:45:37.812Z,14.73
2019-02-07T17:48:07.902Z,5.85
2019-02-07T17:50:37.569Z,10.10
2019-02-07T17:53:07.500Z,5.97
2019-02-07T17:55:37.034Z,4.78
2019-02-07T17:58:08.564Z,9.30
2019-02-07T18:00:56.890Z,7.92
2019-02-07T18:03:26.530Z,6.03
2019-02-07T18:05:56.285Z,8.20
2019-02-07T18:08:25.801Z,5.28
2019-02-07T18:10:55.597Z,5.75
2019-02-07T18:13:25.316Z,5.05
2019-02-07T18:15:57.446Z,6.00
2019-02-07T18:18:26.078Z,5.00
2019-02-07T18:20:55.728Z,5.28
2019-02-07T18:23:25.318Z,9.38
2019-02-07T18:25:54.922Z,6.15
2019-02-07T18:28:24.613Z,15.38
2019-02-07T18:30:54.166Z,7.95
2019-02-07T18:33:23.753Z,9.50
2019-02-07T18:35:53.321Z,18.60
2019-02-07T18:38:22.869Z,7.78
2019-02-07T18:40:52.557Z,6.03
2019-02-07T18:43:22.061Z,9.55
2019-02-07T18:45:51.578Z,7.75
2019-02-07T18:48:21.095Z,4.75
2019-02-07T18:50:50.756Z,11.12
2019-02-07T18:53:20.286Z,8.58
2019-02-07T18:55:49.929Z,4.70
2019-02-07T18:58:19.420Z,9.05
2019-02-07T19:00:49.042Z,7.42
2019-02-07T19:03:18.666Z,5.10
2019-02-07T19:05:48.153Z,8.00
2019-02-07T19:08:17.687Z,7.12
2019-02-07T19:10:47.253Z,5.17
2019-02-07T19:13:17.956Z,3.85
2019-02-07T19:15:50.828Z,7.85
2019-02-07T19:18:20.392Z,4.72
2019-02-07T19:20:50.094Z,4.62
2019-02-07T19:23:20.000Z,4.15
2019-02-07T19:25:49.601Z,7.05
2019-02-07T19:28:19.113Z,6.92
2019-02-07T19:30:48.764Z,3.22
2019-02-07T19:33:18.384Z,6.03
2019-02-07T19:35:47.929Z,7.78
2019-02-07T19:38:17.538Z,6.85
2019-02-07T19:40:47.142Z,9.08
2019-02-07T19:43:16.701Z,4.72
2019-02-07T19:45:46.216Z,18.92
2019-02-07T19:48:15.752Z,16.70
2019-02-07T19:50:45.331Z,22.35
2019-02-07T19:53:14.863Z,16.27
2019-02-07T19:55:44.405Z,22.35
2019-02-07T19:58:13.927Z,21.48
2019-02-07T20:00:43.475Z,16.20
2019-02-07T20:03:13.039Z,14.55
2019-02-07T20:05:42.537Z,8.00
2019-02-07T20:08:12.213Z,13.45
2019-02-07T20:10:41.748Z,12.13
2019-02-07T20:13:11.249Z,16.55
2019-02-07T20:15:42.266Z,9.25
2019-02-07T20:18:12.799Z,7.65
2019-02-07T20:20:42.455Z,7.22
2019-02-07T20:23:11.992Z,5.90
2019-02-07T20:25:41.985Z,7.12
2019-02-07T20:28:11.536Z,8.40
2019-02-07T20:30:42.595Z,11.18
2019-02-07T20:33:12.236Z,6.00
2019-02-07T20:35:41.754Z,14.78
2019-02-07T20:38:12.576Z,7.90
2019-02-07T20:40:42.622Z,5.83
2019-02-07T20:43:12.136Z,8.55
2019-02-07T20:45:41.947Z,3.33
2019-02-07T20:48:11.749Z,7.00
2019-02-07T20:50:41.323Z,5.42
2019-02-07T20:53:11.471Z,4.37
2019-02-07T20:55:41.928Z,5.58
2019-02-07T20:58:11.492Z,4.25
2019-02-07T21:00:41.646Z,2.60
2019-02-07T21:03:11.408Z,2.80
2019-02-07T21:05:41.039Z,2.35
2019-02-07T21:08:10.622Z,2.65
2019-02-07T21:10:40.317Z,4.22
2019-02-07T21:13:10.287Z,6.08
2019-02-07T21:15:39.789Z,3.77
2019-02-07T21:18:09.418Z,6.12
2019-02-07T21:20:39.053Z,5.72
2019-02-07T21:23:08.711Z,3.87
2019-02-07T21:25:44.091Z,2.52
2019-02-07T21:28:14.096Z,4.08
2019-02-07T21:30:43.628Z,5.22
2019-02-07T21:33:13.242Z,1.92
2019-02-07T21:35:42.918Z,8.88
2019-02-07T21:38:12.559Z,9.85
2019-02-07T21:40:42.108Z,8.18
2019-02-07T21:43:12.603Z,5.85
2019-02-07T21:45:43.108Z,4.65
2019-02-07T21:48:12.692Z,8.75
2019-02-07T21:50:42.212Z,10.00
2019-02-07T21:53:11.955Z,10.48
2019-02-07T21:56:50.575Z,3.58
2019-02-07T21:59:20.067Z,13.38
2019-02-07T22:01:49.617Z,25.75
2019-02-07T22:04:19.186Z,22.22
2019-02-07T22:06:48.784Z,27.87
2019-02-07T22:09:18.448Z,23.77
2019-02-07T22:11:48.068Z,22.45
2019-02-07T22:14:18.579Z,23.32
2019-02-07T22:16:48.077Z,26.82
2019-02-07T22:19:17.727Z,18.15
2019-02-07T22:21:47.204Z,18.60
2019-02-07T22:24:16.799Z,18.98
2019-02-07T22:26:46.223Z,14.68
2019-02-07T22:29:17.111Z,14.30
2019-02-07T22:31:46.723Z,16.87
2019-02-07T22:34:16.292Z,21.90
2019-02-07T22:36:45.873Z,17.67
2019-02-07T22:39:15.781Z,13.08
2019-02-07T22:41:45.343Z,15.45
2019-02-07T22:44:15.413Z,19.32
2019-02-07T22:46:44.942Z,21.85
2019-02-07T22:49:14.807Z,12.73
2019-02-07T22:51:44.318Z,17.07
2019-02-07T22:54:13.787Z,14.25
2019-02-07T22:56:45.361Z,23.73
2019-02-07T22:59:14.507Z,17.90
2019-02-07T23:01:53.286Z,15.28
2019-02-07T23:04:24.293Z,13.83
2019-02-07T23:06:53.877Z,16.35
2019-02-07T23:09:23.624Z,17.07
2019-02-07T23:11:54.843Z,13.72
2019-02-07T23:14:24.481Z,17.80
2019-02-07T23:16:53.988Z,12.65
2019-02-07T23:19:23.629Z,14.20
2019-02-07T23:21:53.339Z,9.05
2019-02-07T23:24:22.881Z,10.55
2019-02-07T23:26:52.556Z,12.78
2019-02-07T23:29:22.030Z,9.53
2019-02-07T23:31:51.544Z,11.83
2019-02-07T23:34:21.047Z,8.03
2019-02-07T23:36:50.725Z,9.33
2019-02-07T23:39:20.456Z,9.45
2019-02-07T23:41:50.519Z,8.58
2019-02-07T23:44:20.124Z,8.08
2019-02-07T23:46:49.641Z,10.95
2019-02-07T23:49:19.145Z,8.45
2019-02-07T23:51:48.803Z,9.03
2019-02-07T23:54:18.348Z,9.18
2019-02-07T23:56:48.397Z,7.85
2019-02-07T23:59:18.027Z,10.32
